createdAt,value
2023-02-03T00:02:09.603Z,85.01
2023-02-03T00:04:36.154Z,84.68
2023-02-03T00:07:02.837Z,84.41
2023-02-03T00:09:29.669Z,84.46
2023-02-03T00:11:56.256Z,84.06
2023-02-03T00:14:22.792Z,84.12
2023-02-03T00:16:50.862Z,83.97
2023-02-03T00:19:17.821Z,84.03
2023-02-03T00:21:44.669Z,83.99
2023-02-03T00:24:11.267Z,84.82
2023-02-03T00:26:41.775Z,85.82
2023-02-03T00:29:08.362Z,86.93
2023-02-03T00:31:35.222Z,87.38
2023-02-03T00:34:03.240Z,87.70
2023-02-03T00:36:29.890Z,87.94
2023-02-03T00:38:56.575Z,87.51
2023-02-03T00:41:23.550Z,87.60
2023-02-03T00:43:51.551Z,86.97
2023-02-03T00:46:18.445Z,86.87
2023-02-03T00:48:45.021Z,87.07
2023-02-03T00:51:14.253Z,86.34
2023-02-03T00:53:40.808Z,86.21
2023-02-03T00:56:07.468Z,86.08
2023-02-03T00:58:34.025Z,85.25
2023-02-03T01:01:03.176Z,85.37
2023-02-03T01:03:29.775Z,85.21
2023-02-03T01:05:56.527Z,85.05
2023-02-03T01:08:24.421Z,84.81
2023-02-03T01:10:50.948Z,84.72
2023-02-03T01:13:17.483Z,84.22
2023-02-03T01:15:47.494Z,84.04
2023-02-03T01:18:14.531Z,84.18
2023-02-03T01:20:41.076Z,83.79
2023-02-03T01:23:07.613Z,84.07
2023-02-03T01:25:36.408Z,83.70
2023-02-03T01:28:03.097Z,84.18
2023-02-03T01:30:30.027Z,83.75
2023-02-03T01:32:56.928Z,83.30
2023-02-03T01:35:24.946Z,83.05
2023-02-03T01:37:51.675Z,82.91
2023-02-03T01:40:18.977Z,82.78
2023-02-03T01:42:47.045Z,82.36
2023-02-03T01:45:13.885Z,82.26
2023-02-03T01:47:46.449Z,82.26
2023-02-03T01:50:17.389Z,82.19
2023-02-03T01:52:48.412Z,82.16
2023-02-03T01:55:19.455Z,82.17
2023-02-03T01:57:52.151Z,81.78
2023-02-03T02:00:19.493Z,81.44
2023-02-03T02:02:49.041Z,81.45
2023-02-03T02:05:22.677Z,81.58
2023-02-03T02:07:49.887Z,81.50
2023-02-03T02:10:17.354Z,81.39
2023-02-03T02:12:44.264Z,81.22
2023-02-03T02:15:12.631Z,80.70
2023-02-03T02:18:06.284Z,80.47
2023-02-03T02:20:59.868Z,80.05
2023-02-03T02:23:49.677Z,80.43
2023-02-03T02:26:39.546Z,80.71
2023-02-03T02:29:28.378Z,80.49
2023-02-03T02:32:14.553Z,81.23
2023-02-03T02:34:52.506Z,80.83
2023-02-03T02:37:26.427Z,80.53
2023-02-03T02:39:58.707Z,80.68
2023-02-03T02:42:34.167Z,80.88
2023-02-03T02:45:09.021Z,80.76
2023-02-03T02:47:38.256Z,80.89
2023-02-03T02:50:14.102Z,80.65
2023-02-03T02:52:46.163Z,80.67
2023-02-03T02:55:16.510Z,80.74
2023-02-03T02:57:44.423Z,80.84
2023-02-03T03:00:12.594Z,80.53
2023-02-03T03:02:40.960Z,81.02
2023-02-03T03:05:11.713Z,80.71
2023-02-03T03:07:48.114Z,80.66
2023-02-03T03:10:18.604Z,80.14
2023-02-03T03:12:50.424Z,80.28
2023-02-03T03:15:24.867Z,80.12
2023-02-03T03:17:58.841Z,79.65
2023-02-03T03:20:27.914Z,80.05
2023-02-03T03:22:58.821Z,79.87
2023-02-03T03:25:30.179Z,79.75
2023-02-03T03:27:59.336Z,79.80
2023-02-03T03:30:29.191Z,79.54
2023-02-03T03:32:57.370Z,78.89
2023-02-03T03:35:28.500Z,78.57
2023-02-03T03:37:59.962Z,79.11
2023-02-03T03:40:31.611Z,79.23
2023-02-03T03:43:02.315Z,78.47
2023-02-03T03:45:35.578Z,78.67
2023-02-03T03:48:08.431Z,78.44
2023-02-03T03:50:39.129Z,78.70
2023-02-03T03:53:09.118Z,78.05
2023-02-03T03:55:37.229Z,78.12
2023-02-03T03:58:07.710Z,78.10
2023-02-03T04:00:37.369Z,78.36
2023-02-03T04:03:11.658Z,78.28
2023-02-03T04:05:39.516Z,78.27
2023-02-03T04:08:06.219Z,78.30
2023-02-03T04:10:34.483Z,78.54
2023-02-03T04:13:01.824Z,78.65
2023-02-03T04:15:28.515Z,78.96
2023-02-03T04:17:55.086Z,78.80
2023-02-03T04:20:24.041Z,78.38
2023-02-03T04:22:51.645Z,78.33
2023-02-03T04:25:18.296Z,78.62
2023-02-03T04:27:44.872Z,78.45
2023-02-03T04:30:12.586Z,78.86
2023-02-03T04:32:39.284Z,78.73
2023-02-03T04:35:07.107Z,79.06
2023-02-03T04:37:35.045Z,79.12
2023-02-03T04:40:01.891Z,79.34
2023-02-03T04:42:29.041Z,79.00
2023-02-03T04:44:55.681Z,79.06
2023-02-03T04:47:22.386Z,78.96
2023-02-03T04:49:48.963Z,79.12
2023-02-03T04:52:15.883Z,78.75
2023-02-03T04:54:44.006Z,78.86
2023-02-03T04:57:10.583Z,78.77
2023-02-03T04:59:37.303Z,78.57
2023-02-03T05:02:04.000Z,78.39
2023-02-03T05:04:30.717Z,78.21
2023-02-03T05:06:57.384Z,78.53
2023-02-03T05:09:24.118Z,78.19
2023-02-03T05:11:52.550Z,78.51
2023-02-03T05:14:19.488Z,78.14
2023-02-03T05:16:46.522Z,78.01
2023-02-03T05:19:13.457Z,78.09
2023-02-03T05:21:40.110Z,77.94
2023-02-03T05:24:07.240Z,77.29
2023-02-03T05:26:34.173Z,78.02
2023-02-03T05:29:02.570Z,77.62
2023-02-03T05:31:29.220Z,77.54
2023-02-03T05:33:55.805Z,77.48
2023-02-03T05:36:22.307Z,77.41
2023-02-03T05:38:49.709Z,77.61
2023-02-03T05:41:16.238Z,77.62
2023-02-03T05:43:42.946Z,77.54
2023-02-03T05:46:11.139Z,76.82
2023-02-03T05:48:37.728Z,77.03
2023-02-03T05:51:04.559Z,77.32
2023-02-03T05:53:31.164Z,77.39
2023-02-03T05:55:57.642Z,77.68
2023-02-03T05:58:24.179Z,77.28
2023-02-03T06:00:51.852Z,77.36
2023-02-03T06:03:19.840Z,77.68
2023-02-03T06:05:46.365Z,77.61
2023-02-03T06:08:12.910Z,76.95
2023-02-03T06:10:39.475Z,77.14
2023-02-03T06:13:10.402Z,77.11
2023-02-03T06:15:36.982Z,77.38
2023-02-03T06:18:03.716Z,77.11
2023-02-03T06:20:31.846Z,77.13
2023-02-03T06:22:58.384Z,77.48
2023-02-03T06:25:24.953Z,77.24
2023-02-03T06:27:51.571Z,77.17
2023-02-03T06:30:18.424Z,76.56
2023-02-03T06:32:45.333Z,76.54
2023-02-03T06:35:11.974Z,76.62
2023-02-03T06:37:39.872Z,76.69
2023-02-03T06:40:07.299Z,76.92
2023-02-03T06:42:34.063Z,76.88
2023-02-03T06:45:00.703Z,76.51
2023-02-03T06:47:27.313Z,76.32
2023-02-03T06:49:54.029Z,76.29
2023-02-03T06:52:20.647Z,75.97
2023-02-03T06:54:48.595Z,75.88
2023-02-03T06:57:15.283Z,76.08
2023-02-03T06:59:42.058Z,75.73
2023-02-03T07:02:10.107Z,75.67
2023-02-03T07:04:36.886Z,75.74
2023-02-03T07:07:03.411Z,75.69
2023-02-03T07:09:30.106Z,75.34
2023-02-03T07:11:57.999Z,75.28
2023-02-03T07:14:24.575Z,75.14
2023-02-03T07:16:51.286Z,75.30
2023-02-03T07:19:17.878Z,74.80
2023-02-03T07:21:44.563Z,74.94
2023-02-03T07:24:11.174Z,75.12
2023-02-03T07:26:37.895Z,74.31
2023-02-03T07:29:06.224Z,74.70
2023-02-03T07:31:32.903Z,74.74
2023-02-03T07:33:59.561Z,74.37
2023-02-03T07:36:26.125Z,74.19
2023-02-03T07:38:52.741Z,73.87
2023-02-03T07:41:19.227Z,74.59
2023-02-03T07:43:45.832Z,74.52
2023-02-03T07:46:13.809Z,74.74
2023-02-03T07:48:40.688Z,74.63
2023-02-03T07:51:07.392Z,73.88
2023-02-03T07:53:33.971Z,74.54
2023-02-03T07:56:00.872Z,74.49
2023-02-03T07:58:27.682Z,73.92
2023-02-03T08:00:54.185Z,74.34
2023-02-03T08:03:22.123Z,74.26
2023-02-03T08:05:48.641Z,74.18
2023-02-03T08:08:15.891Z,74.59
2023-02-03T08:10:42.395Z,74.40
2023-02-03T08:13:08.971Z,74.19
2023-02-03T08:15:35.497Z,74.25
2023-02-03T08:18:02.075Z,73.82
2023-02-03T08:20:30.432Z,74.12
2023-02-03T08:22:57.235Z,74.58
2023-02-03T08:25:23.712Z,73.84
2023-02-03T08:27:50.466Z,74.24
2023-02-03T08:30:16.983Z,73.98
2023-02-03T08:32:43.504Z,74.30
2023-02-03T08:35:10.002Z,74.14
2023-02-03T08:37:38.004Z,74.37
2023-02-03T08:40:05.686Z,74.62
2023-02-03T08:42:32.466Z,74.49
2023-02-03T08:44:59.028Z,74.44
2023-02-03T08:47:26.337Z,73.78
2023-02-03T08:49:53.114Z,74.21
2023-02-03T08:52:19.673Z,74.65
2023-02-03T08:54:48.043Z,74.10
2023-02-03T08:57:14.689Z,73.98
2023-02-03T08:59:43.009Z,74.35
2023-02-03T09:02:14.320Z,74.20
2023-02-03T09:04:40.997Z,73.97
2023-02-03T09:07:07.550Z,73.28
2023-02-03T09:09:34.399Z,73.53
2023-02-03T09:12:05.851Z,73.83
2023-02-03T09:14:33.297Z,73.13
2023-02-03T09:17:00.609Z,73.43
2023-02-03T09:19:27.218Z,73.57
2023-02-03T09:21:53.802Z,73.49
2023-02-03T09:24:20.635Z,73.03
2023-02-03T09:26:47.130Z,74.24
2023-02-03T09:29:15.335Z,74.32
2023-02-03T09:31:41.852Z,74.92
2023-02-03T09:34:08.443Z,75.16
2023-02-03T09:36:35.233Z,75.47
2023-02-03T09:39:02.032Z,75.50
2023-02-03T09:41:48.436Z,75.85
2023-02-03T09:44:21.714Z,76.17
2023-02-03T09:46:52.977Z,75.44
2023-02-03T09:49:25.612Z,75.87
2023-02-03T09:51:58.491Z,75.88
2023-02-03T09:54:33.354Z,76.51
2023-02-03T09:57:04.917Z,76.40
2023-02-03T09:59:34.906Z,76.25
2023-02-03T10:02:12.459Z,76.80
2023-02-03T10:04:44.047Z,76.47
2023-02-03T10:07:18.351Z,76.60
2023-02-03T10:09:56.231Z,76.92
2023-02-03T10:12:40.111Z,76.97
2023-02-03T10:15:30.636Z,76.83
2023-02-03T10:18:03.588Z,76.80
2023-02-03T10:20:35.584Z,76.69
2023-02-03T10:23:06.961Z,77.31
2023-02-03T10:25:38.409Z,77.19
2023-02-03T10:28:12.001Z,77.56
2023-02-03T10:30:44.344Z,77.84
2023-02-03T10:33:13.056Z,78.50
2023-02-03T10:35:48.876Z,78.16
2023-02-03T10:38:23.955Z,78.80
2023-02-03T10:40:50.625Z,79.05
2023-02-03T10:43:17.163Z,79.24
2023-02-03T10:45:45.095Z,79.40
2023-02-03T10:48:15.753Z,79.73
2023-02-03T10:50:46.484Z,79.92
2023-02-03T10:53:22.197Z,80.23
2023-02-03T10:55:51.001Z,80.80
2023-02-03T10:58:26.265Z,80.70
2023-02-03T11:00:58.625Z,80.19
2023-02-03T11:03:27.977Z,81.26
2023-02-03T11:06:06.316Z,80.81
2023-02-03T11:08:34.208Z,80.60
2023-02-03T11:11:05.715Z,80.74
2023-02-03T11:13:32.729Z,81.46
2023-02-03T11:16:03.011Z,81.61
2023-02-03T11:18:39.107Z,81.44
2023-02-03T11:21:11.901Z,81.75
2023-02-03T11:23:50.352Z,81.08
2023-02-03T11:26:21.020Z,81.67
2023-02-03T11:28:50.118Z,81.80
2023-02-03T11:31:24.911Z,81.21
2023-02-03T11:33:56.725Z,81.94
2023-02-03T11:36:26.626Z,81.48
2023-02-03T11:39:08.499Z,81.30
2023-02-03T11:41:37.333Z,81.66
2023-02-03T11:44:11.218Z,81.38
2023-02-03T11:46:40.296Z,81.78
2023-02-03T11:49:29.636Z,82.04
2023-02-03T11:52:02.269Z,81.93
2023-02-03T11:54:37.592Z,81.88
2023-02-03T11:57:23.809Z,81.96
2023-02-03T12:00:02.293Z,82.45
2023-02-03T12:02:58.115Z,82.84
2023-02-03T12:05:40.414Z,83.08
2023-02-03T12:08:21.121Z,82.97
2023-02-03T12:11:04.985Z,82.85
2023-02-03T12:13:52.356Z,83.00
2023-02-03T12:16:40.511Z,82.78
2023-02-03T12:19:18.878Z,82.96
2023-02-03T12:21:47.142Z,83.93
2023-02-03T12:24:24.545Z,83.66
2023-02-03T12:27:03.053Z,83.75
2023-02-03T12:29:34.343Z,83.86
2023-02-03T12:32:09.849Z,84.02
2023-02-03T12:34:41.301Z,83.84
2023-02-03T12:37:13.713Z,83.95
2023-02-03T12:39:45.242Z,84.20
2023-02-03T12:42:18.935Z,83.68
2023-02-03T12:44:51.731Z,83.80
2023-02-03T12:47:25.953Z,83.83
2023-02-03T12:49:57.979Z,83.79
2023-02-03T12:52:30.727Z,83.65
2023-02-03T12:55:07.606Z,83.71
2023-02-03T12:57:38.040Z,84.26
2023-02-03T13:00:16.361Z,84.34
2023-02-03T13:02:52.904Z,84.21
2023-02-03T13:05:24.856Z,84.25
2023-02-03T13:07:59.423Z,84.12
2023-02-03T13:10:31.599Z,83.72
2023-02-03T13:12:59.166Z,83.72
2023-02-03T13:15:30.302Z,83.46
2023-02-03T13:18:03.906Z,83.83
2023-02-03T13:20:33.687Z,84.06
2023-02-03T13:23:01.215Z,83.77
2023-02-03T13:25:38.323Z,83.60
2023-02-03T13:28:17.727Z,84.01
2023-02-03T13:30:55.483Z,84.45
2023-02-03T13:33:49.596Z,84.67
2023-02-03T13:36:37.395Z,84.97
2023-02-03T13:39:27.745Z,85.75
2023-02-03T13:42:07.648Z,86.59
2023-02-03T13:44:36.905Z,86.89
2023-02-03T13:47:04.015Z,87.26
2023-02-03T13:49:35.844Z,87.45
2023-02-03T13:52:03.861Z,88.23
2023-02-03T13:54:34.488Z,88.02
2023-02-03T13:57:03.154Z,88.24
2023-02-03T13:59:41.337Z,88.91
2023-02-03T14:02:30.703Z,89.55
2023-02-03T14:04:58.573Z,90.74
2023-02-03T14:07:32.221Z,91.39
2023-02-03T14:10:21.596Z,92.07
2023-02-03T14:12:58.879Z,92.47
2023-02-03T14:15:31.725Z,92.51
2023-02-03T14:18:18.259Z,94.12
2023-02-03T14:21:10.437Z,93.64
2023-02-03T14:23:44.256Z,94.78
2023-02-03T14:26:19.224Z,94.16
2023-02-03T14:28:47.759Z,95.04
2023-02-03T14:31:19.175Z,95.34
2023-02-03T14:34:06.179Z,95.78
2023-02-03T14:36:40.159Z,95.78
2023-02-03T14:40:07.432Z,95.04
2023-02-03T14:43:09.969Z,94.98
2023-02-03T14:46:25.844Z,95.44
2023-02-03T14:49:09.872Z,96.15
2023-02-03T14:51:57.723Z,95.89
2023-02-03T14:54:46.479Z,95.77
2023-02-03T14:57:29.955Z,95.93
2023-02-03T15:00:00.819Z,96.16
2023-02-03T15:02:29.344Z,95.93
2023-02-03T15:05:29.824Z,95.44
2023-02-03T15:07:56.736Z,96.17
2023-02-03T15:10:29.166Z,95.71
2023-02-03T15:12:58.166Z,95.63
2023-02-03T15:15:26.882Z,95.11
2023-02-03T15:17:56.273Z,94.85
2023-02-03T15:20:30.778Z,95.44
2023-02-03T15:22:57.681Z,95.35
2023-02-03T15:25:25.911Z,95.46
2023-02-03T15:27:52.944Z,94.95
2023-02-03T15:30:25.806Z,94.79
2023-02-03T15:33:01.778Z,94.98
2023-02-03T15:35:32.118Z,94.76
2023-02-03T15:38:02.467Z,94.49
2023-02-03T15:40:37.732Z,94.99
2023-02-03T15:43:10.926Z,95.49
2023-02-03T15:45:41.867Z,95.06
2023-02-03T15:48:16.328Z,94.29
2023-02-03T15:50:46.838Z,94.21
2023-02-03T15:53:21.059Z,94.41
2023-02-03T15:55:50.884Z,94.20
2023-02-03T15:58:20.318Z,94.73
2023-02-03T16:00:52.380Z,93.75
2023-02-03T16:03:23.604Z,93.78
2023-02-03T16:05:50.607Z,94.07
2023-02-03T16:08:37.625Z,93.75
2023-02-03T16:11:23.434Z,93.67
2023-02-03T16:13:50.172Z,94.02
2023-02-03T16:16:22.048Z,94.27
2023-02-03T16:18:53.806Z,94.19
2023-02-03T16:21:30.158Z,94.62
2023-02-03T16:23:57.327Z,94.77
2023-02-03T16:26:28.723Z,94.37
2023-02-03T16:28:57.180Z,94.28
2023-02-03T16:31:25.426Z,94.19
2023-02-03T16:33:52.051Z,94.00
2023-02-03T16:36:18.545Z,93.40
2023-02-03T16:38:45.541Z,93.14
2023-02-03T16:41:17.207Z,92.27
2023-02-03T16:43:44.120Z,92.59
2023-02-03T16:46:12.212Z,92.29
2023-02-03T16:48:40.521Z,92.36
2023-02-03T16:51:12.444Z,91.22
2023-02-03T16:53:39.146Z,91.91
2023-02-03T16:56:06.307Z,91.84
2023-02-03T16:58:33.006Z,91.34
2023-02-03T17:01:01.258Z,91.17
2023-02-03T17:03:28.913Z,91.01
2023-02-03T17:05:57.244Z,91.34
2023-02-03T17:08:25.499Z,90.35
2023-02-03T17:10:52.096Z,89.31
2023-02-03T17:13:21.177Z,89.96
2023-02-03T17:15:50.170Z,89.90
2023-02-03T17:18:16.922Z,89.89
2023-02-03T17:20:44.953Z,89.52
2023-02-03T17:23:14.032Z,89.46
2023-02-03T17:25:40.654Z,89.25
2023-02-03T17:28:09.018Z,89.12
2023-02-03T17:30:36.170Z,89.09
2023-02-03T17:33:05.101Z,88.63
2023-02-03T17:35:31.938Z,88.84
2023-02-03T17:37:58.653Z,88.85
2023-02-03T17:54:11.526Z,89.56
2023-02-03T17:56:39.549Z,89.18
2023-02-03T17:59:06.107Z,89.09
2023-02-03T18:01:32.822Z,89.06
2023-02-03T18:04:01.156Z,88.87
2023-02-03T18:06:29.383Z,88.72
2023-02-03T18:08:56.544Z,88.31
2023-02-03T18:11:23.054Z,88.45
2023-02-03T18:13:50.974Z,88.63
2023-02-03T18:16:19.513Z,88.11
2023-02-03T18:18:46.142Z,88.10
2023-02-03T18:21:14.346Z,88.01
2023-02-03T18:23:41.765Z,87.80
2023-02-03T18:26:10.311Z,87.66
2023-02-03T18:28:37.624Z,87.79
2023-02-03T18:31:07.668Z,87.87
2023-02-03T18:33:35.632Z,87.38
2023-02-03T18:36:03.008Z,87.08
2023-02-03T18:38:30.941Z,86.72
2023-02-03T18:40:57.434Z,86.81
2023-02-03T18:43:24.055Z,86.34
2023-02-03T18:45:50.772Z,85.74
2023-02-03T18:48:18.677Z,85.30
2023-02-03T18:50:45.156Z,85.29
2023-02-03T18:53:11.873Z,85.05
2023-02-03T18:55:40.670Z,84.31
2023-02-03T18:58:07.250Z,83.50
2023-02-03T19:00:33.780Z,83.23
2023-02-03T19:03:00.698Z,83.16
2023-02-03T19:05:28.592Z,82.22
2023-02-03T19:07:55.197Z,82.73
2023-02-03T19:10:21.704Z,82.67
2023-02-03T19:12:48.320Z,82.40
2023-02-03T19:15:14.909Z,82.05
2023-02-03T19:17:41.444Z,82.10
2023-02-03T19:20:10.113Z,81.41
2023-02-03T19:22:38.132Z,81.31
2023-02-03T19:25:05.361Z,80.74
2023-02-03T19:27:31.951Z,80.49
2023-02-03T19:29:58.524Z,80.28
2023-02-03T19:32:25.245Z,79.85
2023-02-03T19:34:51.796Z,79.80
2023-02-03T19:37:18.433Z,79.65
2023-02-03T19:39:46.253Z,79.82
2023-02-03T19:42:12.976Z,79.88
2023-02-03T19:44:39.490Z,79.04
2023-02-03T19:47:06.300Z,79.44
2023-02-03T19:49:32.793Z,79.64
2023-02-03T19:51:59.652Z,79.49
2023-02-03T19:54:26.386Z,79.25
2023-02-03T19:56:54.303Z,80.43
2023-02-03T19:59:20.844Z,80.64
2023-02-03T20:01:47.573Z,80.42
2023-02-03T20:04:14.126Z,81.20
2023-02-03T20:06:40.696Z,81.09
2023-02-03T20:09:07.236Z,80.84
2023-02-03T20:11:33.923Z,80.81
2023-02-03T20:14:01.832Z,81.33
2023-02-03T20:16:28.463Z,81.22
2023-02-03T20:18:55.081Z,81.22
2023-02-03T20:21:21.696Z,81.46
2023-02-03T20:23:48.208Z,81.10
2023-02-03T20:26:14.798Z,81.47
2023-02-03T20:28:41.316Z,81.50
2023-02-03T20:31:09.348Z,81.72
2023-02-03T20:33:36.017Z,81.60
2023-02-03T20:36:02.666Z,81.64
2023-02-03T20:38:29.160Z,81.75
2023-02-03T20:40:55.794Z,81.80
2023-02-03T20:43:24.863Z,82.07
2023-02-03T20:45:52.117Z,81.78
2023-02-03T20:48:22.069Z,81.55
2023-02-03T20:50:49.189Z,80.51
2023-02-03T20:53:17.756Z,81.16
2023-02-03T20:55:45.027Z,80.51
2023-02-03T20:58:16.898Z,80.78
2023-02-03T21:00:43.887Z,80.64
2023-02-03T21:03:11.540Z,80.30
2023-02-03T21:05:42.639Z,80.16
2023-02-03T21:08:13.088Z,80.49
2023-02-03T21:10:39.998Z,80.50
2023-02-03T21:13:18.001Z,80.59
2023-02-03T21:15:44.760Z,81.11
2023-02-03T21:18:27.519Z,80.91
2023-02-03T21:20:55.542Z,80.35
2023-02-03T21:23:25.598Z,80.66
2023-02-03T21:25:52.471Z,80.59
2023-02-03T21:28:24.258Z,80.55
2023-02-03T21:30:50.719Z,80.55
2023-02-03T21:33:29.678Z,80.45
2023-02-03T21:35:57.710Z,79.30
2023-02-03T21:38:29.502Z,78.76
2023-02-03T21:40:56.133Z,78.87
2023-02-03T21:43:22.907Z,78.79
2023-02-03T21:45:50.988Z,79.15
2023-02-03T21:48:27.137Z,79.30
2023-02-03T21:50:55.723Z,79.19
2023-02-03T21:53:27.218Z,78.59
2023-02-03T21:55:54.585Z,78.64
2023-02-03T21:58:23.726Z,77.77
2023-02-03T22:00:51.087Z,78.10
2023-02-03T22:03:24.328Z,77.24
2023-02-03T22:05:50.917Z,77.67
2023-02-03T22:08:18.400Z,77.27
2023-02-03T22:10:47.081Z,77.16
2023-02-03T22:13:14.030Z,77.60
2023-02-03T22:15:41.299Z,77.61
2023-02-03T22:18:08.138Z,77.23
2023-02-03T22:20:35.024Z,76.76
2023-02-03T22:23:01.627Z,76.73
2023-02-03T22:25:28.574Z,76.34
2023-02-03T22:27:56.511Z,76.54
2023-02-03T22:30:23.122Z,76.61
2023-02-03T22:32:49.637Z,76.00
2023-02-03T22:35:16.262Z,75.42
2023-02-03T22:37:42.774Z,75.07
2023-02-03T22:40:11.033Z,75.19
2023-02-03T22:42:37.583Z,74.58
2023-02-03T22:45:07.057Z,75.09
2023-02-03T22:47:33.794Z,75.53
2023-02-03T22:50:00.395Z,75.51
2023-02-03T22:52:27.074Z,74.84
2023-02-03T22:54:53.716Z,75.63
2023-02-03T22:57:20.224Z,75.66
2023-02-03T22:59:46.887Z,75.83
2023-02-03T23:02:14.842Z,75.66
2023-02-03T23:04:41.545Z,74.73
2023-02-03T23:07:08.295Z,74.93
2023-02-03T23:09:34.940Z,74.99
2023-02-03T23:12:01.469Z,75.42
2023-02-03T23:14:28.135Z,75.32
2023-02-03T23:16:54.808Z,75.56
2023-02-03T23:19:22.817Z,75.34
2023-02-03T23:21:49.362Z,75.19
2023-02-03T23:24:16.186Z,74.84
2023-02-03T23:26:42.753Z,74.38
2023-02-03T23:29:09.409Z,75.13
2023-02-03T23:31:36.104Z,75.13
2023-02-03T23:34:03.030Z,75.30
2023-02-03T23:36:31.132Z,75.54
2023-02-03T23:38:57.914Z,75.74
2023-02-03T23:41:24.468Z,75.32
2023-02-03T23:43:51.090Z,75.41
2023-02-03T23:46:17.678Z,75.12
2023-02-03T23:48:44.247Z,75.52
2023-02-03T23:51:10.854Z,75.34
2023-02-03T23:53:39.030Z,75.26
2023-02-03T23:56:05.896Z,74.97
2023-02-03T23:58:32.501Z,75.36
